Time;durP1;ratioP1;P1;durP2;ratioP2;P2;SDS_P1;SDS_P2;PMS_P1;PMS_P2;Temp;Humidity;BMP_temperature;BMP_pressure;BME280_temperature;BME280_humidity;BME280_pressure;Samples;Min_cycle;Max_cycle;Signal;HPM_P1;HPM_P2
2021/04/18 00:01:08;;;;;;;3.30;1.98;;;30.40;93.60;;;;;;5010390;28;20203;-50
2021/04/18 00:03:38;;;;;;;2.58;2.15;;;30.40;93.70;;;;;;5009673;28;21728;-53
2021/04/18 00:06:12;;;;;;;2.30;2.10;;;30.50;93.80;;;;;;5010695;28;20214;-51
2021/04/18 00:08:42;;;;;;;3.40;2.42;;;30.50;93.90;;;;;;5010217;28;20204;-49
2021/04/18 00:11:12;;;;;;;2.58;2.38;;;30.60;94.00;;;;;;5010214;28;20266;-48
2021/04/18 00:13:44;;;;;;;2.50;2.30;;;30.60;94.00;;;;;;5008967;28;20726;-54
2021/04/18 00:16:15;;;;;;;2.15;2.03;;;30.70;94.00;;;;;;4997358;28;20663;-53
2021/04/18 00:18:45;;;;;;;2.60;2.40;;;30.80;94.10;;;;;;5010343;28;20302;-51
2021/04/18 00:21:15;;;;;;;2.28;2.00;;;30.90;94.10;;;;;;5010100;28;20238;-51
2021/04/18 00:23:45;;;;;;;1.95;1.85;;;30.90;94.00;;;;;;5009619;28;20664;-53
2021/04/18 00:26:16;;;;;;;2.53;1.90;;;31.00;93.90;;;;;;5009613;28;20238;-51
2021/04/18 00:28:47;;;;;;;2.03;1.92;;;31.00;93.80;;;;;;5009851;28;20754;-51
2021/04/18 00:31:17;;;;;;;2.10;1.90;;;31.10;93.80;;;;;;5010044;28;20201;-54
2021/04/18 00:33:47;;;;;;;2.10;1.90;;;31.10;93.70;;;;;;5009624;28;20708;-53
2021/04/18 00:36:27;;;;;;;2.17;1.98;;;31.20;93.50;;;;;;5009065;28;20289;-51
2021/04/18 00:38:57;;;;;;;2.25;1.92;;;31.30;93.40;;;;;;5009845;28;20211;-54
2021/04/18 00:41:28;;;;;;;2.05;1.85;;;31.30;93.30;;;;;;5009922;28;20208;-53
2021/04/18 00:43:59;;;;;;;2.00;1.88;;;31.30;93.30;;;;;;5009299;28;20239;-50
2021/04/18 00:46:29;;;;;;;2.40;2.10;;;31.40;93.40;;;;;;5008803;28;20204;-52
2021/04/18 00:48:59;;;;;;;2.75;1.80;;;31.40;93.50;;;;;;4996161;28;20228;-51
2021/04/18 00:51:31;;;;;;;2.33;2.13;;;31.40;93.40;;;;;;5010020;28;20556;-52
2021/04/18 00:54:01;;;;;;;1.95;1.75;;;31.50;93.40;;;;;;5009981;28;20745;-52
2021/04/18 00:56:31;;;;;;;2.13;1.92;;;31.60;93.40;;;;;;5009540;28;20218;-51
2021/04/18 00:59:03;;;;;;;2.70;2.00;;;31.70;93.50;;;;;;5008827;28;20211;-53
2021/04/18 01:01:34;;;;;;;2.40;1.95;;;31.70;93.50;;;;;;5009530;28;20730;-52
2021/04/18 01:04:04;;;;;;;4.57;2.10;;;31.80;93.50;;;;;;5009182;28;20644;-54
2021/04/18 01:06:35;;;;;;;2.28;2.08;;;31.80;93.50;;;;;;5009543;28;20199;-50
2021/04/18 01:09:06;;;;;;;2.67;2.20;;;31.90;93.30;;;;;;5008138;28;20211;-50
2021/04/18 01:11:36;;;;;;;4.47;2.10;;;31.90;93.20;;;;;;5008811;28;20239;-54
2021/04/18 01:14:07;;;;;;;2.50;2.30;;;32.10;93.30;;;;;;5009272;28;20207;-53
2021/04/18 01:16:38;;;;;;;3.20;2.95;;;32.10;93.00;;;;;;5009430;28;20217;-53
2021/04/18 01:19:08;;;;;;;4.10;3.70;;;32.20;92.90;;;;;;5008700;28;20250;-50
2021/04/18 01:21:40;;;;;;;4.38;3.97;;;32.20;92.20;;;;;;5008984;28;20569;-56
2021/04/18 01:24:11;;;;;;;3.85;3.55;;;32.30;91.90;;;;;;5008979;28;20262;-54
2021/04/18 01:26:41;;;;;;;4.47;4.10;;;32.40;92.30;;;;;;5009379;28;20231;-53
2021/04/18 01:29:12;;;;;;;4.03;3.63;;;32.40;92.10;;;;;;5009109;28;20597;-52
2021/04/18 01:31:42;;;;;;;4.10;3.70;;;32.50;92.30;;;;;;5008603;28;21127;-52
2021/04/18 01:34:13;;;;;;;3.95;3.55;;;32.60;92.20;;;;;;5009030;28;20199;-54
2021/04/18 01:36:49;;;;;;;5.35;4.05;;;32.60;91.90;;;;;;5009198;28;20204;-55
2021/04/18 01:39:19;;;;;;;4.30;3.90;;;32.70;90.80;;;;;;5009338;28;20203;-54
2021/04/18 01:41:49;;;;;;;4.80;4.32;;;32.80;89.60;;;;;;5008868;28;20215;-54
2021/04/18 01:44:22;;;;;;;4.03;3.65;;;32.80;89.10;;;;;;4989494;28;20235;-55
2021/04/18 01:46:52;;;;;;;4.93;4.13;;;32.80;88.90;;;;;;4989487;28;20728;-53
2021/04/18 01:49:22;;;;;;;3.40;3.10;;;32.80;89.10;;;;;;4989080;28;20196;-54
2021/04/18 01:51:54;;;;;;;3.80;3.38;;;32.80;89.40;;;;;;4988758;28;20208;-53
2021/04/18 01:54:24;;;;;;;4.20;3.80;;;32.80;89.40;;;;;;4988859;28;20684;-49
2021/04/18 01:56:54;;;;;;;4.25;3.85;;;32.80;88.70;;;;;;4989482;28;20216;-49
2021/04/18 01:59:25;;;;;;;4.45;4.00;;;32.90;88.30;;;;;;4989303;28;20644;-49
2021/04/18 02:02:05;;;;;;;4.20;3.78;;;32.90;87.40;;;;;;4989221;28;20196;-49
2021/04/18 02:04:36;;;;;;;4.15;3.75;;;32.90;87.30;;;;;;4932092;29;20246;-52
2021/04/18 02:07:08;;;;;;;5.18;3.38;;;32.90;88.00;;;;;;4932982;29;20206;-54
2021/04/18 02:09:39;;;;;;;3.15;2.92;;;32.90;87.00;;;;;;4964253;28;20307;-55
2021/04/18 02:12:12;;;;;;;4.00;2.78;;;33.00;87.60;;;;;;4970966;28;20605;-51
2021/04/18 02:14:42;;;;;;;3.65;2.83;;;33.00;86.70;;;;;;4969750;28;20208;-51
2021/04/18 02:17:13;;;;;;;2.80;2.60;;;33.00;85.10;;;;;;4971160;28;20201;-52
2021/04/18 02:19:43;;;;;;;3.42;3.13;;;33.10;84.90;;;;;;4971137;28;20296;-52
2021/04/18 02:22:15;;;;;;;3.60;2.83;;;33.10;84.10;;;;;;4970796;28;20421;-54
2021/04/18 02:24:45;;;;;;;3.20;2.90;;;33.10;84.10;;;;;;4969907;28;20260;-51
2021/04/18 02:27:15;;;;;;;2.65;2.45;;;33.10;84.20;;;;;;4970615;28;20937;-51
2021/04/18 02:29:45;;;;;;;3.60;2.90;;;33.20;84.80;;;;;;4970860;28;20268;-51
2021/04/18 02:32:15;;;;;;;5.60;2.67;;;33.20;85.10;;;;;;4970726;28;20601;-51
2021/04/18 02:34:46;;;;;;;3.63;2.80;;;33.20;85.10;;;;;;4979888;28;20199;-49
2021/04/18 02:37:18;;;;;;;3.20;2.90;;;33.20;85.30;;;;;;5011136;28;20208;-51
2021/04/18 02:39:49;;;;;;;3.70;2.95;;;33.30;82.60;;;;;;5012661;28;20235;-53
2021/04/18 02:42:19;;;;;;;2.53;2.33;;;33.40;82.30;;;;;;5012466;28;20613;-50
2021/04/18 02:44:49;;;;;;;2.88;2.45;;;33.40;82.00;;;;;;5012116;28;20253;-48
2021/04/18 02:47:20;;;;;;;3.03;2.60;;;33.40;81.60;;;;;;5011663;28;20332;-50
2021/04/18 02:49:50;;;;;;;4.00;2.45;;;33.40;81.10;;;;;;4998050;28;20732;-47
2021/04/18 02:52:22;;;;;;;2.63;2.38;;;33.40;81.30;;;;;;5012215;28;20207;-51
2021/04/18 02:54:52;;;;;;;3.05;2.60;;;33.40;80.00;;;;;;5010656;28;20238;-50
2021/04/18 02:57:23;;;;;;;2.45;2.08;;;33.40;80.10;;;;;;5012058;28;20199;-51
2021/04/18 02:59:53;;;;;;;3.42;2.78;;;33.40;80.50;;;;;;5011169;28;20207;-48
2021/04/18 03:02:24;;;;;;;3.08;2.80;;;33.40;80.40;;;;;;5011947;28;20195;-51
2021/04/18 03:04:57;;;;;;;3.53;2.90;;;33.40;79.60;;;;;;5012080;28;20216;-53
2021/04/18 03:07:28;;;;;;;3.10;2.80;;;33.40;79.20;;;;;;5011851;28;20192;-51
